CheckWX is a tool to help pilots better visualize weather data.  It is not intended as a substitute for an official pre-flight weather briefing.

09:56:05 UTC

FAOR METAR
Olifants River Bridge Landing Strip Airport
Olifants River Bridge, South Africa
Current

56 mins ago

FAOR 210900Z 33008KT 290V030 CAVOK 26/12 Q1023 NOSIG
Observed
Mar-21 @ 09:00 UTC
Wind
  • 330° at 8 KTS
Visibility
10,000+ meters
Flight Rules
VFR
Cloud Levels
  • Clear skies
Temperature
26°C / 79°F
Dewpoint
12°C / 54°F
Humidity
42%
Altimeter
30.21" Hg
Pressure
1022.92 hPa
Previous

2 hours ago

FAOR 210800Z 34009KT 300V020 CAVOK 24/13 Q1022 NOSIG
Observed
Mar-21 @ 08:00 UTC
Wind
  • 340° at 9 KTS
Visibility
10,000+ meters
Flight Rules
VFR
Cloud Levels
  • Clear skies
Temperature
24°C / 75°F
Dewpoint
13°C / 55°F
Humidity
50%
Altimeter
30.18" Hg
Pressure
1021.92 hPa
Previous

3 hours ago

FAOR 210700Z 35010KT CAVOK 22/13 Q1022 NOSIG
Observed
Mar-21 @ 07:00 UTC
Wind
  • 350° at 10 KTS
Visibility
10,000+ meters
Flight Rules
VFR
Cloud Levels
  • Clear skies
Temperature
22°C / 72°F
Dewpoint
13°C / 55°F
Humidity
57%
Altimeter
30.18" Hg
Pressure
1021.92 hPa